createdAt,value
2022-11-20T00:00:09.714Z,98.24
2022-11-20T00:01:09.714Z,98.24
2022-11-20T00:02:09.856Z,98.14
2022-11-20T00:03:09.682Z,98.14
2022-11-20T00:04:09.673Z,98.24
2022-11-20T00:05:09.680Z,98.35
2022-11-20T00:06:09.711Z,98.35
2022-11-20T00:07:09.679Z,98.35
2022-11-20T00:08:09.729Z,98.55
2022-11-20T00:09:09.622Z,98.66
2022-11-20T00:10:09.604Z,98.66
2022-11-20T00:11:15.322Z,98.55
2022-11-20T00:12:10.584Z,98.66
2022-11-20T00:13:09.564Z,98.76
2022-11-20T00:14:09.573Z,98.76
2022-11-20T00:15:09.554Z,98.86
2022-11-20T00:16:09.555Z,98.97
2022-11-20T00:17:09.523Z,99.07
2022-11-20T00:18:09.524Z,99.07
2022-11-20T00:19:09.514Z,99.07
2022-11-20T00:20:09.493Z,98.97
2022-11-20T00:21:09.496Z,98.97
2022-11-20T00:22:09.496Z,99.07
2022-11-20T00:23:09.455Z,99.07
2022-11-20T00:24:09.453Z,99.17
2022-11-20T00:25:09.444Z,99.17
2022-11-20T00:26:09.445Z,99.11
2022-11-20T00:27:09.415Z,99.11
2022-11-20T00:28:09.406Z,99.11
2022-11-20T00:29:09.406Z,99.32
2022-11-20T00:30:13.669Z,99.32
2022-11-20T00:31:10.375Z,99.43
2022-11-20T00:32:09.386Z,99.32
2022-11-20T00:33:09.353Z,99.32
2022-11-20T00:34:09.356Z,99.43
2022-11-20T00:35:09.364Z,99.43
2022-11-20T00:36:09.346Z,99.52
2022-11-20T00:37:09.332Z,99.52
2022-11-20T00:38:09.317Z,99.63
2022-11-20T00:39:09.304Z,99.63
2022-11-20T00:40:09.325Z,99.73
2022-11-20T00:41:09.327Z,99.84
2022-11-20T00:42:09.257Z,99.84
2022-11-20T00:43:09.289Z,99.84
2022-11-20T00:44:09.266Z,99.90
2022-11-20T00:45:09.225Z,99.90
2022-11-20T00:46:09.218Z,99.90
2022-11-20T00:47:09.199Z,99.90
2022-11-20T00:48:09.209Z,99.79
2022-11-20T00:49:09.207Z,99.79
2022-11-20T00:50:09.205Z,99.79
2022-11-20T00:51:09.158Z,99.79
2022-11-20T00:52:09.167Z,99.90
2022-11-20T00:53:09.265Z,99.90
2022-11-20T00:54:09.167Z,99.90
2022-11-20T00:55:09.127Z,99.99
2022-11-20T00:56:09.116Z,99.99
2022-11-20T00:57:09.108Z,99.99
2022-11-20T00:58:14.187Z,99.99
2022-11-20T00:59:10.087Z,99.99
2022-11-20T01:00:09.078Z,99.99
2022-11-20T01:01:09.167Z,99.90
2022-11-20T01:02:09.061Z,99.90
2022-11-20T01:03:09.039Z,99.79
2022-11-20T01:04:09.059Z,99.69
2022-11-20T01:05:09.020Z,99.69
2022-11-20T01:06:09.018Z,99.58
2022-11-20T01:07:09.042Z,99.58
2022-11-20T01:08:08.999Z,99.58
2022-11-20T01:09:08.969Z,99.58
2022-11-20T01:10:08.970Z,99.69
2022-11-20T01:11:08.961Z,99.69
2022-11-20T01:12:08.958Z,99.69
2022-11-20T01:13:08.929Z,99.84
2022-11-20T01:14:08.952Z,99.84
2022-11-20T01:15:08.933Z,99.73
2022-11-20T01:16:08.911Z,99.73
2022-11-20T01:17:08.901Z,99.84
2022-11-20T01:18:08.931Z,99.84
2022-11-20T01:19:08.880Z,99.94
2022-11-20T01:20:08.870Z,99.94
2022-11-20T01:21:08.868Z,99.94
2022-11-20T01:22:08.838Z,99.94
2022-11-20T01:23:08.871Z,99.94
2022-11-20T01:24:08.843Z,99.94
2022-11-20T01:25:08.803Z,99.94
2022-11-20T01:26:08.790Z,99.94
2022-11-20T01:27:08.780Z,99.94
2022-11-20T01:28:08.771Z,99.84
2022-11-20T01:29:08.792Z,99.84
2022-11-20T01:30:08.763Z,99.73
2022-11-20T01:31:08.752Z,99.73
2022-11-20T01:32:08.733Z,99.73
2022-11-20T01:33:08.712Z,99.63
2022-11-20T01:34:08.721Z,99.63
2022-11-20T01:35:08.731Z,99.63
2022-11-20T01:36:08.690Z,99.63
2022-11-20T01:37:08.673Z,99.52
2022-11-20T01:38:08.682Z,99.52
2022-11-20T01:39:08.653Z,99.57
2022-11-20T01:40:08.645Z,99.57
2022-11-20T01:41:08.663Z,99.57
2022-11-20T01:42:10.366Z,99.68
2022-11-20T01:43:08.611Z,99.68
2022-11-20T01:44:08.763Z,99.68
2022-11-20T01:45:08.601Z,99.78
2022-11-20T01:46:08.593Z,99.78
2022-11-20T01:47:08.617Z,99.88
2022-11-20T01:48:08.564Z,99.88
2022-11-20T01:49:08.553Z,99.99
2022-11-20T01:50:08.554Z,99.99
2022-11-20T01:51:08.542Z,99.99
2022-11-20T01:52:08.521Z,99.99
2022-11-20T01:53:08.514Z,99.99
2022-11-20T01:54:08.524Z,99.99
2022-11-20T01:55:08.613Z,99.99
2022-11-20T01:56:08.482Z,99.99
2022-11-20T01:57:08.461Z,99.99
2022-11-20T01:58:08.474Z,99.99
2022-11-20T01:59:08.451Z,99.99
2022-11-20T02:00:08.445Z,99.99
2022-11-20T02:01:08.468Z,99.99
2022-11-20T02:02:08.426Z,99.99
2022-11-20T02:03:08.434Z,99.99
2022-11-20T02:04:08.392Z,99.99
2022-11-20T02:05:08.545Z,99.99
2022-11-20T02:06:08.485Z,99.99
2022-11-20T02:07:08.432Z,99.99
2022-11-20T02:08:08.489Z,99.99
2022-11-20T02:09:08.356Z,99.99
2022-11-20T02:10:08.336Z,99.99
2022-11-20T02:11:08.327Z,99.99
2022-11-20T02:12:08.316Z,99.99
2022-11-20T02:13:08.294Z,99.99
2022-11-20T02:14:08.319Z,99.99
2022-11-20T02:15:08.416Z,99.99
2022-11-20T02:16:08.276Z,99.99
2022-11-20T02:17:08.264Z,99.99
2022-11-20T02:18:08.339Z,99.99
2022-11-20T02:19:08.236Z,99.99
2022-11-20T02:20:08.226Z,99.99
2022-11-20T02:21:08.216Z,99.99
2022-11-20T02:22:08.215Z,99.99
2022-11-20T02:23:08.187Z,99.99
2022-11-20T02:24:08.187Z,99.99
2022-11-20T02:25:08.169Z,99.99
2022-11-20T02:26:08.176Z,99.99
2022-11-20T02:27:08.156Z,99.99
2022-11-20T02:28:08.152Z,99.99
2022-11-20T02:29:08.127Z,99.99
2022-11-20T02:30:08.129Z,99.99
2022-11-20T02:31:08.107Z,99.99
2022-11-20T02:32:08.116Z,99.88
2022-11-20T02:33:08.077Z,99.78
2022-11-20T02:34:08.089Z,99.68
2022-11-20T02:35:08.074Z,99.16
2022-11-20T02:36:08.059Z,98.96
2022-11-20T02:37:08.039Z,98.85
2022-11-20T02:38:08.028Z,98.75
2022-11-20T02:39:08.028Z,98.44
2022-11-20T02:40:08.060Z,97.92
2022-11-20T02:41:08.013Z,97.82
2022-11-20T02:42:08.022Z,97.67
2022-11-20T02:43:08.012Z,97.36
2022-11-20T02:44:08.003Z,96.95
2022-11-20T02:45:07.977Z,96.74
2022-11-20T02:46:07.975Z,96.23
2022-11-20T02:47:07.965Z,95.92
2022-11-20T02:48:07.962Z,95.92
2022-11-20T02:49:07.943Z,95.50
2022-11-20T02:50:07.922Z,95.20
2022-11-20T02:51:07.904Z,94.89
2022-11-20T02:52:07.915Z,95.09
2022-11-20T02:53:07.914Z,94.78
2022-11-20T02:54:07.882Z,94.27
2022-11-20T02:55:07.874Z,94.06
2022-11-20T02:56:07.894Z,94.37
2022-11-20T02:57:07.855Z,94.47
2022-11-20T02:58:07.834Z,94.47
2022-11-20T02:59:07.823Z,94.68
2022-11-20T03:00:07.842Z,94.68
2022-11-20T03:01:07.832Z,94.57
2022-11-20T03:02:07.845Z,94.68
2022-11-20T03:03:07.775Z,94.78
2022-11-20T03:04:07.784Z,94.47
2022-11-20T03:05:07.775Z,93.75
2022-11-20T03:06:07.762Z,93.75
2022-11-20T03:07:07.804Z,93.96
2022-11-20T03:08:07.746Z,94.06
2022-11-20T03:09:07.735Z,93.96
2022-11-20T03:10:07.716Z,93.75
2022-11-20T03:11:07.715Z,93.34
2022-11-20T03:12:07.692Z,93.44
2022-11-20T03:13:07.686Z,93.65
2022-11-20T03:14:07.675Z,93.85
2022-11-20T03:15:07.667Z,93.96
2022-11-20T03:16:07.668Z,94.17
2022-11-20T03:17:07.656Z,94.27
2022-11-20T03:18:07.645Z,94.27
2022-11-20T03:19:08.066Z,94.27
2022-11-20T03:20:07.608Z,93.85
2022-11-20T03:21:07.593Z,93.54
2022-11-20T03:22:07.588Z,93.44
2022-11-20T03:23:07.597Z,93.54
2022-11-20T03:24:07.567Z,93.75
2022-11-20T03:25:07.556Z,93.75
2022-11-20T03:26:07.547Z,93.54
2022-11-20T03:27:07.527Z,93.44
2022-11-20T03:28:07.535Z,93.34
2022-11-20T03:29:07.525Z,93.34
2022-11-20T03:30:07.507Z,93.24
2022-11-20T03:31:07.508Z,93.24
2022-11-20T03:32:07.501Z,93.34
2022-11-20T03:33:07.474Z,93.44
2022-11-20T03:34:07.478Z,93.13
2022-11-20T03:35:07.447Z,93.03
2022-11-20T03:36:07.460Z,93.03
2022-11-20T03:37:07.448Z,93.03
2022-11-20T03:38:07.428Z,93.13
2022-11-20T03:39:07.408Z,92.93
2022-11-20T03:40:07.459Z,92.93
2022-11-20T03:41:07.399Z,92.61
2022-11-20T03:42:07.417Z,92.93
2022-11-20T03:43:07.370Z,93.24
2022-11-20T03:44:07.368Z,93.34
2022-11-20T03:45:07.342Z,93.13
2022-11-20T03:46:07.328Z,93.34
2022-11-20T03:47:07.560Z,93.54
2022-11-20T03:48:07.307Z,93.54
2022-11-20T03:49:07.299Z,93.54
2022-11-20T03:50:07.279Z,93.54
2022-11-20T03:51:07.285Z,93.54
2022-11-20T03:52:07.289Z,93.44
2022-11-20T03:53:07.259Z,93.54
2022-11-20T03:54:07.271Z,93.54
2022-11-20T03:55:07.250Z,93.54
2022-11-20T03:56:07.239Z,93.54
2022-11-20T03:57:07.231Z,93.44
2022-11-20T03:58:07.248Z,93.65
2022-11-20T03:59:07.200Z,93.44
2022-11-20T04:00:07.461Z,93.54
2022-11-20T04:01:07.179Z,93.65
2022-11-20T04:02:07.229Z,93.54
2022-11-20T04:03:07.161Z,93.54
2022-11-20T04:04:07.180Z,93.54
2022-11-20T04:05:07.141Z,93.65
2022-11-20T04:06:07.131Z,93.54
2022-11-20T04:07:07.207Z,93.54
2022-11-20T04:08:07.091Z,93.65
2022-11-20T04:09:07.103Z,93.75
2022-11-20T04:10:07.102Z,93.65
2022-11-20T04:11:07.062Z,93.85
2022-11-20T04:12:07.071Z,93.85
2022-11-20T04:13:07.071Z,93.96
2022-11-20T04:14:07.050Z,94.06
2022-11-20T04:15:07.052Z,94.06
2022-11-20T04:16:07.049Z,93.96
2022-11-20T04:17:07.022Z,93.75
2022-11-20T04:18:07.008Z,93.75
2022-11-20T04:19:06.993Z,93.96
2022-11-20T04:20:06.994Z,93.85
2022-11-20T04:21:06.981Z,93.13
2022-11-20T04:22:06.943Z,93.03
2022-11-20T04:23:06.946Z,93.03
2022-11-20T04:24:06.943Z,93.13
2022-11-20T04:25:06.931Z,93.13
2022-11-20T04:26:06.937Z,93.03
2022-11-20T04:27:06.904Z,93.13
2022-11-20T04:28:06.901Z,93.03
2022-11-20T04:29:06.883Z,93.24
2022-11-20T04:30:06.871Z,93.24
2022-11-20T04:31:06.895Z,93.13
2022-11-20T04:32:06.854Z,93.34
2022-11-20T04:33:06.834Z,93.24
2022-11-20T04:34:06.824Z,93.03
2022-11-20T04:35:06.824Z,92.93
2022-11-20T04:36:06.815Z,93.03
2022-11-20T04:37:06.824Z,93.13
2022-11-20T04:38:06.785Z,93.03
2022-11-20T04:39:06.788Z,93.13
2022-11-20T04:40:06.772Z,93.13
2022-11-20T04:41:06.755Z,92.82
2022-11-20T04:42:06.751Z,92.72
2022-11-20T04:43:06.724Z,92.61
2022-11-20T04:44:06.719Z,92.72
2022-11-20T04:45:06.724Z,92.61
2022-11-20T04:46:06.707Z,92.93
2022-11-20T04:47:06.695Z,92.93
2022-11-20T04:48:06.672Z,92.82
2022-11-20T04:49:06.694Z,92.72
2022-11-20T04:50:06.705Z,92.82
2022-11-20T04:51:06.642Z,92.82
2022-11-20T04:52:06.663Z,92.72
2022-11-20T04:53:06.617Z,92.61
2022-11-20T04:54:06.605Z,92.61
2022-11-20T04:55:06.627Z,92.72
2022-11-20T04:56:06.595Z,92.82
2022-11-20T04:57:11.345Z,92.93
2022-11-20T04:58:07.566Z,93.03
2022-11-20T04:59:06.578Z,92.93
2022-11-20T05:00:06.565Z,92.82
2022-11-20T05:01:06.612Z,92.61
2022-11-20T05:02:06.649Z,92.51
2022-11-20T05:03:06.518Z,92.51
2022-11-20T05:04:06.513Z,92.61
2022-11-20T05:05:06.506Z,92.72
2022-11-20T05:06:06.485Z,92.61
2022-11-20T05:07:06.525Z,92.31
2022-11-20T05:08:06.470Z,92.21
2022-11-20T05:09:06.727Z,91.79
2022-11-20T05:10:06.458Z,91.64
2022-11-20T05:11:06.429Z,91.89
2022-11-20T05:12:06.427Z,92.10
2022-11-20T05:13:06.424Z,92.37
2022-11-20T05:14:06.414Z,92.10
2022-11-20T05:15:06.445Z,92.10
2022-11-20T05:16:06.380Z,92.06
2022-11-20T05:17:06.370Z,91.96
2022-11-20T05:18:06.377Z,91.85
2022-11-20T05:19:06.367Z,92.06
2022-11-20T05:20:06.337Z,91.96
2022-11-20T05:21:06.339Z,91.96
2022-11-20T05:22:06.330Z,91.85
2022-11-20T05:23:06.328Z,91.96
2022-11-20T05:24:06.319Z,91.85
2022-11-20T05:25:06.279Z,91.75
2022-11-20T05:26:06.287Z,91.64
2022-11-20T05:27:06.290Z,91.75
2022-11-20T05:28:06.399Z,91.96
2022-11-20T05:29:06.259Z,92.06
2022-11-20T05:30:06.228Z,92.16
2022-11-20T05:31:06.525Z,92.06
2022-11-20T05:32:06.210Z,91.85
2022-11-20T05:33:06.217Z,91.96
2022-11-20T05:34:06.227Z,91.64
2022-11-20T05:35:06.274Z,91.54
2022-11-20T05:36:06.179Z,91.64
2022-11-20T05:37:06.199Z,91.54
2022-11-20T05:38:06.140Z,91.44
2022-11-20T05:39:06.151Z,91.44
2022-11-20T05:40:06.130Z,91.75
2022-11-20T05:41:06.147Z,91.64
2022-11-20T05:42:06.120Z,91.64
2022-11-20T05:43:06.090Z,91.75
2022-11-20T05:44:06.081Z,91.96
2022-11-20T05:45:06.088Z,92.06
2022-11-20T05:46:06.061Z,91.54
2022-11-20T05:47:06.070Z,91.44
2022-11-20T05:48:06.040Z,91.64
2022-11-20T05:49:06.048Z,91.85
2022-11-20T05:50:06.010Z,91.64
2022-11-20T05:51:06.011Z,91.75
2022-11-20T05:52:06.011Z,91.64
2022-11-20T05:53:05.991Z,91.71
2022-11-20T05:54:05.991Z,91.54
2022-11-20T05:55:05.962Z,91.54
2022-11-20T05:56:05.960Z,91.40
2022-11-20T05:57:06.015Z,91.54
2022-11-20T05:58:05.933Z,91.54
2022-11-20T05:59:05.940Z,91.64
2022-11-20T06:00:05.912Z,91.91
2022-11-20T06:01:05.922Z,91.75
2022-11-20T06:02:05.883Z,91.71
2022-11-20T06:03:05.973Z,91.60
2022-11-20T06:04:05.864Z,91.60
2022-11-20T06:05:05.869Z,91.71
2022-11-20T06:06:05.994Z,91.71
2022-11-20T06:07:05.933Z,91.91
2022-11-20T06:08:05.825Z,91.81
2022-11-20T06:09:05.829Z,91.50
2022-11-20T06:10:05.815Z,91.50
2022-11-20T06:11:05.813Z,91.30
2022-11-20T06:12:05.813Z,91.50
2022-11-20T06:13:05.988Z,91.50
2022-11-20T06:14:05.774Z,91.60
2022-11-20T06:15:05.761Z,91.50
2022-11-20T06:16:05.753Z,91.71
2022-11-20T06:17:05.741Z,91.91
2022-11-20T06:18:05.733Z,92.02
2022-11-20T06:19:05.712Z,91.91
2022-11-20T06:20:05.717Z,91.50
2022-11-20T06:21:05.715Z,91.40
2022-11-20T06:22:05.674Z,91.40
2022-11-20T06:23:05.685Z,91.40
2022-11-20T06:24:05.674Z,91.30
2022-11-20T06:25:05.655Z,91.50
2022-11-20T06:26:05.652Z,91.30
2022-11-20T06:27:05.624Z,91.19
2022-11-20T06:28:05.625Z,91.50
2022-11-20T06:29:05.643Z,91.19
2022-11-20T06:30:05.585Z,90.99
2022-11-20T06:31:05.606Z,90.88
2022-11-20T06:32:05.578Z,90.99
2022-11-20T06:33:05.566Z,91.09
2022-11-20T06:34:05.557Z,91.40
2022-11-20T06:35:05.578Z,91.30
2022-11-20T06:36:10.422Z,91.30
2022-11-20T06:37:06.535Z,90.99
2022-11-20T06:38:05.521Z,91.09
2022-11-20T06:39:05.527Z,91.09
2022-11-20T06:40:05.486Z,91.09
2022-11-20T06:41:05.529Z,91.09
2022-11-20T06:42:05.484Z,91.09
2022-11-20T06:43:05.466Z,91.19
2022-11-20T06:44:05.436Z,91.19
2022-11-20T06:45:05.437Z,91.30
2022-11-20T06:46:05.429Z,91.19
2022-11-20T06:47:05.862Z,91.30
2022-11-20T06:48:05.497Z,91.40
2022-11-20T06:49:05.401Z,91.40
2022-11-20T06:50:05.398Z,91.09
2022-11-20T06:51:05.390Z,90.99
2022-11-20T06:52:05.389Z,91.09
2022-11-20T06:53:05.367Z,91.30
2022-11-20T06:54:05.354Z,91.30
2022-11-20T06:55:05.358Z,90.99
2022-11-20T06:56:05.328Z,90.99
2022-11-20T06:57:06.043Z,91.09
2022-11-20T06:58:05.311Z,91.09
2022-11-20T06:59:05.330Z,91.09
2022-11-20T07:00:05.297Z,91.19
2022-11-20T07:01:05.441Z,91.09
2022-11-20T07:02:05.269Z,91.09
2022-11-20T07:03:05.264Z,91.09
2022-11-20T07:04:05.351Z,91.09
2022-11-20T07:05:05.229Z,91.09
2022-11-20T07:06:05.236Z,90.88
2022-11-20T07:07:05.263Z,90.99
2022-11-20T07:08:05.190Z,91.19
2022-11-20T07:09:09.902Z,91.19
2022-11-20T07:10:06.491Z,91.19
2022-11-20T07:11:05.168Z,91.30
2022-11-20T07:12:05.150Z,91.36
2022-11-20T07:13:05.159Z,91.25
2022-11-20T07:14:05.140Z,91.05
2022-11-20T07:15:05.161Z,91.15
2022-11-20T07:16:05.119Z,90.84
2022-11-20T07:17:05.118Z,90.73
2022-11-20T07:18:05.080Z,90.84
2022-11-20T07:19:05.071Z,90.73
2022-11-20T07:20:05.071Z,90.64
2022-11-20T07:21:05.181Z,90.53
2022-11-20T07:22:05.050Z,90.33
2022-11-20T07:23:05.061Z,90.22
2022-11-20T07:24:05.021Z,90.12
2022-11-20T07:25:05.010Z,90.22
2022-11-20T07:26:05.061Z,90.33
2022-11-20T07:27:05.000Z,90.22
2022-11-20T07:28:05.001Z,90.33
2022-11-20T07:29:04.995Z,90.33
2022-11-20T07:30:04.971Z,90.33
2022-11-20T07:31:04.989Z,90.12
2022-11-20T07:32:04.931Z,90.12
2022-11-20T07:33:04.931Z,89.91
2022-11-20T07:34:04.952Z,90.22
2022-11-20T07:35:04.912Z,90.12
2022-11-20T07:36:04.891Z,89.91
2022-11-20T07:37:10.057Z,90.01
2022-11-20T07:38:05.882Z,89.91
2022-11-20T07:39:04.862Z,90.01
2022-11-20T07:40:04.870Z,90.01
2022-11-20T07:41:04.870Z,90.01
2022-11-20T07:42:05.812Z,89.97
2022-11-20T07:43:04.902Z,90.28
2022-11-20T07:44:04.832Z,90.28
2022-11-20T07:45:04.805Z,89.97
2022-11-20T07:46:05.514Z,89.87
2022-11-20T07:47:04.803Z,89.94
2022-11-20T07:48:05.763Z,89.94
2022-11-20T07:49:04.784Z,89.73
2022-11-20T07:50:04.773Z,89.52
2022-11-20T07:51:04.766Z,89.11
2022-11-20T07:52:07.193Z,89.22
2022-11-20T07:53:04.772Z,89.11
2022-11-20T07:54:04.747Z,89.22
2022-11-20T07:55:04.734Z,89.31
2022-11-20T07:56:04.752Z,89.62
2022-11-20T07:57:05.262Z,89.73
2022-11-20T07:58:04.797Z,90.03
2022-11-20T07:59:04.705Z,89.94
2022-11-20T08:00:04.663Z,89.73
2022-11-20T08:01:04.730Z,89.42
2022-11-20T08:02:04.644Z,89.31
2022-11-20T08:03:04.617Z,89.11
2022-11-20T08:04:04.616Z,89.31
2022-11-20T08:05:04.605Z,89.22
2022-11-20T08:06:04.585Z,89.52
2022-11-20T08:07:04.628Z,89.52
2022-11-20T08:08:04.593Z,89.42
2022-11-20T08:09:05.297Z,89.17
2022-11-20T08:10:04.576Z,89.07
2022-11-20T08:11:04.895Z,89.07
2022-11-20T08:12:04.515Z,89.17
2022-11-20T08:13:06.115Z,89.07
2022-11-20T08:14:04.535Z,88.66
2022-11-20T08:15:09.787Z,88.66
2022-11-20T08:16:05.489Z,88.24
2022-11-20T08:17:05.178Z,88.04
2022-11-20T08:18:29.366Z,88.04
2022-11-20T08:19:06.159Z,88.04
2022-11-20T08:20:04.446Z,87.42
2022-11-20T08:21:05.154Z,87.69
2022-11-20T08:22:04.437Z,88.10
2022-11-20T08:23:05.388Z,87.90
2022-11-20T08:24:04.428Z,88.00
2022-11-20T08:25:05.099Z,87.69
2022-11-20T08:26:04.397Z,87.49
2022-11-20T08:27:05.077Z,87.38
2022-11-20T08:28:15.722Z,87.07
2022-11-20T08:29:05.388Z,87.38
2022-11-20T08:30:04.350Z,87.59
2022-11-20T08:31:04.601Z,87.79
2022-11-20T08:32:04.328Z,87.38
2022-11-20T08:33:04.307Z,87.38
2022-11-20T08:34:08.886Z,87.59
2022-11-20T08:35:04.269Z,87.69
2022-11-20T08:36:04.299Z,87.90
2022-11-20T08:37:04.262Z,87.69
2022-11-20T08:38:04.250Z,87.49
2022-11-20T08:39:04.257Z,87.38
2022-11-20T08:40:04.239Z,87.38
2022-11-20T08:41:04.262Z,87.34
2022-11-20T08:42:04.210Z,87.65
2022-11-20T08:43:04.193Z,87.55
2022-11-20T08:44:04.181Z,87.04
2022-11-20T08:45:04.169Z,86.58
2022-11-20T08:46:04.179Z,86.48
2022-11-20T08:47:04.167Z,86.68
2022-11-20T08:48:04.383Z,85.97
2022-11-20T08:49:04.140Z,85.66
2022-11-20T08:50:04.140Z,85.97
2022-11-20T08:51:04.125Z,85.72
2022-11-20T08:52:04.139Z,85.93
2022-11-20T08:53:04.083Z,85.82
2022-11-20T08:54:04.118Z,85.21
2022-11-20T08:55:04.076Z,85.21
2022-11-20T08:56:04.062Z,85.52
2022-11-20T08:57:04.050Z,85.41
2022-11-20T08:58:04.036Z,85.31
2022-11-20T09:00:06.733Z,84.90
2022-11-20T09:01:04.095Z,85.00
2022-11-20T09:02:04.002Z,84.59
2022-11-20T09:03:03.991Z,85.00
2022-11-20T09:04:04.012Z,85.00
2022-11-20T09:05:04.002Z,84.69
2022-11-20T09:06:04.003Z,84.80
2022-11-20T09:07:03.997Z,84.28
2022-11-20T09:08:03.941Z,84.39
2022-11-20T09:09:06.822Z,84.28
2022-11-20T09:10:23.013Z,84.08
2022-11-20T09:11:04.903Z,84.28
2022-11-20T09:12:03.885Z,84.49
2022-11-20T09:13:03.882Z,84.59
2022-11-20T09:14:04.063Z,84.28
2022-11-20T09:15:03.846Z,84.49
2022-11-20T09:16:03.862Z,84.49
2022-11-20T09:17:03.843Z,84.28
2022-11-20T09:18:03.832Z,84.18
2022-11-20T09:20:04.832Z,84.28
2022-11-20T09:21:03.833Z,84.69
2022-11-20T09:22:03.794Z,84.55
2022-11-20T09:23:03.764Z,84.39
2022-11-20T09:24:03.850Z,84.34
2022-11-20T09:25:03.754Z,84.18
2022-11-20T09:26:04.455Z,84.25
2022-11-20T09:27:03.766Z,84.34
2022-11-20T09:28:04.427Z,84.34
2022-11-20T09:29:03.736Z,84.59
2022-11-20T09:30:04.493Z,84.25
2022-11-20T09:31:03.725Z,84.49
2022-11-20T09:32:04.478Z,84.28
2022-11-20T09:33:03.679Z,84.59
2022-11-20T09:34:04.595Z,84.49
2022-11-20T09:35:03.667Z,84.90
2022-11-20T09:36:03.880Z,85.21
2022-11-20T09:37:06.396Z,84.69
2022-11-20T09:38:04.315Z,84.39
2022-11-20T09:39:03.619Z,84.49
2022-11-20T09:40:04.594Z,84.69
2022-11-20T09:41:03.607Z,85.00
2022-11-20T09:42:03.638Z,84.90
2022-11-20T09:43:03.575Z,85.21
2022-11-20T09:44:04.543Z,85.21
2022-11-20T09:45:03.540Z,85.21
2022-11-20T09:46:03.626Z,85.11
2022-11-20T09:47:03.507Z,85.52
2022-11-20T09:48:03.542Z,85.41
2022-11-20T09:49:03.527Z,85.14
2022-11-20T09:50:03.487Z,85.35
2022-11-20T09:51:03.508Z,85.55
2022-11-20T09:52:03.460Z,85.55
2022-11-20T09:53:03.460Z,85.66
2022-11-20T09:54:03.428Z,85.66
2022-11-20T09:55:03.428Z,85.66
2022-11-20T09:56:03.457Z,85.66
2022-11-20T09:57:03.428Z,85.86
2022-11-20T09:58:03.397Z,86.33
2022-11-20T09:59:03.386Z,86.13
2022-11-20T10:00:03.380Z,86.58
2022-11-20T10:01:03.397Z,87.10
2022-11-20T10:02:03.358Z,87.30
2022-11-20T10:03:03.351Z,87.92
2022-11-20T10:04:03.329Z,88.02
2022-11-20T10:05:03.329Z,88.53
2022-11-20T10:06:03.326Z,89.04
2022-11-20T10:07:31.467Z,89.25
2022-11-20T10:08:04.446Z,89.97
2022-11-20T10:09:03.288Z,89.87
2022-11-20T10:10:03.264Z,89.97
2022-11-20T10:11:03.250Z,90.38
2022-11-20T10:12:03.260Z,90.08
2022-11-20T10:13:03.268Z,89.46
2022-11-20T10:14:03.220Z,90.08
2022-11-20T10:15:03.223Z,90.28
2022-11-20T10:16:03.253Z,89.97
2022-11-20T10:17:03.192Z,89.87
2022-11-20T10:18:03.221Z,89.46
2022-11-20T10:19:03.181Z,89.66
2022-11-20T10:20:03.178Z,89.87
2022-11-20T10:21:03.141Z,90.28
2022-11-20T10:22:03.163Z,90.08
2022-11-20T10:23:03.145Z,89.66
2022-11-20T10:24:03.129Z,89.97
2022-11-20T10:25:03.101Z,90.18
2022-11-20T10:26:03.123Z,90.08
2022-11-20T10:27:03.105Z,89.87
2022-11-20T10:28:03.111Z,90.38
2022-11-20T10:29:08.498Z,91.00
2022-11-20T10:30:04.853Z,90.80
2022-11-20T10:31:04.092Z,90.73
2022-11-20T10:32:03.037Z,91.25
2022-11-20T10:33:03.042Z,91.45
2022-11-20T10:34:12.003Z,91.35
2022-11-20T10:35:04.063Z,92.27
2022-11-20T10:36:02.995Z,91.86
2022-11-20T10:37:02.971Z,92.38
2022-11-20T10:38:02.983Z,92.07
2022-11-20T10:39:03.374Z,92.32
2022-11-20T10:40:02.983Z,91.91
2022-11-20T10:41:04.488Z,92.63
2022-11-20T10:42:24.064Z,92.83
2022-11-20T10:43:03.987Z,93.35
2022-11-20T10:44:02.953Z,93.92
2022-11-20T10:45:06.801Z,93.61
2022-11-20T10:46:02.904Z,93.20
2022-11-20T10:47:03.594Z,93.24
2022-11-20T10:48:02.898Z,93.76
2022-11-20T10:49:03.523Z,93.96
2022-11-20T10:50:02.935Z,94.78
2022-11-20T10:51:03.542Z,95.61
2022-11-20T10:52:02.838Z,96.12
2022-11-20T10:53:03.527Z,96.53
2022-11-20T10:54:02.818Z,96.84
2022-11-20T10:55:02.845Z,97.25
2022-11-20T10:56:02.786Z,97.56
2022-11-20T10:57:03.479Z,97.15
2022-11-20T10:58:02.775Z,96.84
2022-11-20T10:59:02.753Z,96.43
2022-11-20T11:00:02.760Z,95.50
2022-11-20T11:01:02.805Z,95.71
2022-11-20T11:02:03.555Z,95.40
2022-11-20T11:03:02.706Z,95.61
2022-11-20T11:04:02.700Z,95.61
2022-11-20T11:05:02.688Z,94.37
2022-11-20T11:06:02.675Z,94.17
2022-11-20T11:07:02.743Z,94.27
2022-11-20T11:08:02.657Z,94.48
2022-11-20T11:09:02.636Z,94.99
2022-11-20T11:10:02.639Z,95.20
2022-11-20T11:11:02.657Z,95.87
2022-11-20T11:12:06.926Z,95.97
2022-11-20T11:13:02.625Z,96.18
2022-11-20T11:14:02.596Z,95.97
2022-11-20T11:15:02.577Z,95.87
2022-11-20T11:16:02.565Z,95.67
2022-11-20T11:17:02.590Z,95.87
2022-11-20T11:18:02.606Z,95.62
2022-11-20T11:19:02.559Z,95.10
2022-11-20T11:20:02.534Z,94.59
2022-11-20T11:21:02.508Z,94.90
2022-11-20T11:22:02.518Z,93.98
2022-11-20T11:23:02.506Z,92.74
2022-11-20T11:24:19.923Z,92.74
2022-11-20T11:25:03.468Z,92.29
2022-11-20T11:26:02.458Z,91.27
2022-11-20T11:27:02.459Z,91.42
2022-11-20T11:28:02.439Z,90.81
2022-11-20T11:29:02.449Z,89.84
2022-11-20T11:30:02.448Z,89.84
2022-11-20T11:31:02.425Z,90.07
2022-11-20T11:32:02.400Z,88.59
2022-11-20T11:33:02.437Z,87.29
2022-11-20T11:34:02.360Z,86.77
2022-11-20T11:35:02.370Z,85.73
2022-11-20T11:36:02.380Z,83.06
2022-11-20T11:37:02.352Z,82.17
2022-11-20T11:38:02.350Z,79.03
2022-11-20T11:39:02.311Z,76.89
2022-11-20T11:40:25.670Z,75.36
2022-11-20T11:41:03.355Z,74.30
2022-11-20T11:42:02.303Z,69.14
2022-11-20T11:43:02.273Z,67.29
2022-11-20T11:44:02.281Z,64.93
2022-11-20T11:45:02.251Z,64.84
2022-11-20T11:46:02.246Z,62.43
2022-11-20T11:47:02.261Z,60.78
2022-11-20T11:48:02.216Z,60.63
2022-11-20T11:49:02.207Z,60.65
2022-11-20T11:50:02.234Z,62.40
2022-11-20T11:51:02.195Z,59.96
2022-11-20T11:52:02.184Z,58.94
2022-11-20T11:53:02.223Z,56.63
2022-11-20T11:54:02.172Z,54.70
2022-11-20T11:55:05.918Z,57.57
2022-11-20T11:56:03.272Z,55.05
2022-11-20T11:57:02.148Z,53.97
2022-11-20T11:58:02.106Z,53.89
2022-11-20T11:59:02.115Z,54.22
2022-11-20T12:00:02.105Z,52.02
2022-11-20T12:01:02.078Z,51.84
2022-11-20T12:02:02.160Z,52.51
2022-11-20T12:03:02.075Z,56.22
2022-11-20T12:04:03.107Z,56.20
2022-11-20T12:05:02.059Z,60.17
2022-11-20T12:06:02.028Z,62.76
2022-11-20T12:07:13.228Z,62.70
2022-11-20T12:08:05.044Z,58.39
2022-11-20T12:09:02.016Z,57.22
2022-11-20T12:10:01.998Z,53.70
2022-11-20T12:11:01.978Z,51.61
2022-11-20T12:12:02.016Z,50.92
2022-11-20T12:13:01.960Z,49.14
2022-11-20T12:14:01.953Z,48.46
2022-11-20T12:15:01.929Z,47.77
2022-11-20T12:16:01.938Z,46.41
2022-11-20T12:17:01.912Z,45.53
2022-11-20T12:18:01.932Z,45.71
2022-11-20T12:19:01.891Z,45.48
2022-11-20T12:20:01.912Z,44.05
2022-11-20T12:21:01.882Z,43.43
2022-11-20T12:22:04.897Z,43.93
2022-11-20T12:23:01.842Z,44.12
2022-11-20T12:24:01.833Z,43.95
2022-11-20T12:25:01.824Z,45.03
2022-11-20T12:26:01.825Z,43.59
2022-11-20T12:27:01.819Z,44.49
2022-11-20T12:28:01.806Z,44.59
2022-11-20T12:29:01.775Z,43.52
2022-11-20T12:30:01.784Z,41.91
2022-11-20T12:31:01.755Z,41.91
2022-11-20T12:32:01.775Z,41.69
2022-11-20T12:33:01.746Z,41.33
2022-11-20T12:34:01.766Z,41.50
2022-11-20T12:35:01.715Z,42.33
2022-11-20T12:36:01.718Z,42.63
2022-11-20T12:37:01.706Z,41.83
2022-11-20T12:38:01.706Z,41.02
2022-11-20T12:39:01.678Z,41.46
2022-11-20T12:40:01.736Z,42.71
2022-11-20T12:41:01.669Z,42.38
2022-11-20T12:42:01.710Z,43.94
2022-11-20T12:43:01.638Z,48.26
2022-11-20T12:44:03.205Z,50.70
2022-11-20T12:45:01.630Z,51.86
2022-11-20T12:46:01.770Z,53.07
2022-11-20T12:47:01.606Z,54.82
2022-11-20T12:48:02.633Z,57.41
2022-11-20T12:49:01.570Z,58.96
2022-11-20T12:50:02.612Z,59.77
2022-11-20T12:51:14.563Z,59.50
2022-11-20T12:52:02.724Z,60.14
2022-11-20T12:53:01.523Z,60.88
2022-11-20T12:54:01.715Z,61.82